createdAt,value
2023-04-22T00:00:28.837Z,22.83
2023-04-22T00:03:17.173Z,22.80
2023-04-22T00:05:47.281Z,23.75
2023-04-22T00:08:15.722Z,23.33
2023-04-22T00:10:45.358Z,23.20
2023-04-22T00:13:13.500Z,25.15
2023-04-22T00:15:41.942Z,24.20
2023-04-22T00:18:13.840Z,23.77
2023-04-22T00:20:43.608Z,23.17
2023-04-22T00:23:13.496Z,22.50
2023-04-22T00:25:42.121Z,23.88
2023-04-22T00:28:11.120Z,24.30
2023-04-22T00:30:39.554Z,23.30
2023-04-22T00:33:07.713Z,23.17
2023-04-22T00:35:36.177Z,22.63
2023-04-22T00:38:04.315Z,24.50
2023-04-22T00:40:34.095Z,24.45
2023-04-22T00:43:02.725Z,23.98
2023-04-22T00:45:32.120Z,23.85
2023-04-22T00:48:00.537Z,25.55
2023-04-22T00:50:29.198Z,25.75
2023-04-22T00:52:57.317Z,25.77
2023-04-22T00:55:26.326Z,26.23
2023-04-22T00:57:56.455Z,25.73
2023-04-22T01:00:27.277Z,25.52
2023-04-22T01:02:56.437Z,25.65
2023-04-22T01:05:25.714Z,25.38
2023-04-22T01:07:53.863Z,25.27
2023-04-22T01:10:22.260Z,25.75
2023-04-22T01:12:50.385Z,25.25
2023-04-22T01:15:20.317Z,23.52
2023-04-22T01:17:49.260Z,23.67
2023-04-22T01:20:17.664Z,23.58
2023-04-22T01:22:46.827Z,23.00
2023-04-22T01:25:16.388Z,22.52
2023-04-22T01:27:45.020Z,21.92
2023-04-22T01:30:14.159Z,22.45
2023-04-22T01:32:42.978Z,21.33
2023-04-22T01:35:11.995Z,21.45
2023-04-22T01:37:40.717Z,21.73
2023-04-22T01:40:11.300Z,21.88
2023-04-22T01:42:41.123Z,21.90
2023-04-22T01:45:10.297Z,22.00
2023-04-22T01:47:38.754Z,23.25
2023-04-22T01:50:08.027Z,20.80
2023-04-22T01:52:36.713Z,21.95
2023-04-22T01:55:05.765Z,23.70
2023-04-22T01:57:34.407Z,24.23
2023-04-22T02:00:05.448Z,23.40
2023-04-22T02:02:33.947Z,22.73
2023-04-22T02:05:02.310Z,23.02
2023-04-22T02:07:30.823Z,24.00
2023-04-22T02:09:58.909Z,23.25
2023-04-22T02:12:27.505Z,21.70
2023-04-22T02:14:55.955Z,22.30
2023-04-22T02:17:25.683Z,23.23
2023-04-22T02:19:54.016Z,24.08
2023-04-22T02:22:23.054Z,21.60
2023-04-22T02:24:51.142Z,22.23
2023-04-22T02:27:19.558Z,22.65
2023-04-22T02:29:48.297Z,22.33
2023-04-22T02:32:17.399Z,21.98
2023-04-22T02:34:47.352Z,23.23
2023-04-22T02:37:15.897Z,24.17
2023-04-22T02:39:44.017Z,23.38
2023-04-22T02:42:12.387Z,24.88
2023-04-22T02:44:41.071Z,24.48
2023-04-22T02:47:09.496Z,23.80
2023-04-22T02:49:37.929Z,24.17
2023-04-22T02:52:07.897Z,24.67
2023-04-22T02:54:36.021Z,25.42
2023-04-22T02:57:04.521Z,25.08
2023-04-22T02:59:32.914Z,26.13
2023-04-22T03:02:01.505Z,25.98
2023-04-22T03:04:29.994Z,23.75
2023-04-22T03:06:58.567Z,19.73
2023-04-22T03:09:28.058Z,19.88
2023-04-22T03:11:56.950Z,20.90
2023-04-22T03:14:25.236Z,22.95
2023-04-22T03:16:53.669Z,22.02
2023-04-22T03:19:21.823Z,21.75
2023-04-22T03:21:50.174Z,20.88
2023-04-22T03:24:18.832Z,20.40
2023-04-22T03:26:48.739Z,20.75
2023-04-22T03:29:16.845Z,20.52
2023-04-22T03:31:45.266Z,19.55
2023-04-22T03:34:13.443Z,16.33
2023-04-22T03:36:41.867Z,17.42
2023-04-22T03:39:10.041Z,18.20
2023-04-22T03:41:38.446Z,20.02
2023-04-22T03:44:07.963Z,20.05
2023-04-22T03:46:36.345Z,20.33
2023-04-22T03:49:05.058Z,18.48
2023-04-22T03:51:33.960Z,17.70
2023-04-22T03:54:02.295Z,18.13
2023-04-22T03:56:30.696Z,17.48
2023-04-22T03:58:58.814Z,18.15
2023-04-22T04:01:28.579Z,16.45
2023-04-22T04:03:56.933Z,18.05
2023-04-22T04:06:25.433Z,18.42
2023-04-22T04:08:53.704Z,17.63
2023-04-22T04:11:22.219Z,16.13
2023-04-22T04:13:50.609Z,16.75
2023-04-22T04:16:19.127Z,16.27
2023-04-22T04:18:51.001Z,17.33
2023-04-22T04:21:19.473Z,18.00
2023-04-22T04:23:47.841Z,18.77
2023-04-22T04:26:16.693Z,17.38
2023-04-22T04:28:44.873Z,18.15
2023-04-22T04:31:13.887Z,17.77
2023-04-22T04:33:42.370Z,16.52
2023-04-22T04:36:12.121Z,16.30
2023-04-22T04:38:40.334Z,16.10
2023-04-22T04:41:09.689Z,17.23
2023-04-22T04:43:37.797Z,16.13
2023-04-22T04:46:06.307Z,16.83
2023-04-22T04:48:36.068Z,17.23
2023-04-22T04:51:06.178Z,17.30
2023-04-22T04:53:35.950Z,16.83
2023-04-22T04:56:04.419Z,20.55
2023-04-22T04:58:32.503Z,18.10
2023-04-22T05:01:00.889Z,18.10
2023-04-22T05:03:29.241Z,17.45
2023-04-22T05:05:57.789Z,16.50
2023-04-22T05:08:25.989Z,16.13
2023-04-22T05:10:56.099Z,17.38
2023-04-22T05:13:24.248Z,19.30
2023-04-22T05:15:52.647Z,18.50
2023-04-22T05:18:21.622Z,22.75
2023-04-22T05:20:50.097Z,19.35
2023-04-22T05:23:18.256Z,17.20
2023-04-22T05:25:46.750Z,16.77
2023-04-22T05:28:16.306Z,14.88
2023-04-22T05:30:44.894Z,16.23
2023-04-22T05:33:13.601Z,15.18
2023-04-22T05:35:42.321Z,14.95
2023-04-22T05:38:11.013Z,15.27
2023-04-22T05:40:40.406Z,13.75
2023-04-22T05:43:09.502Z,12.98
2023-04-22T05:45:39.036Z,13.18
2023-04-22T05:48:07.772Z,12.13
2023-04-22T05:50:36.160Z,11.70
2023-04-22T05:53:04.554Z,12.55
2023-04-22T05:55:32.661Z,11.90
2023-04-22T05:58:01.161Z,11.77
2023-04-22T06:00:29.319Z,11.18
2023-04-22T06:02:59.269Z,12.73
2023-04-22T06:05:27.774Z,13.32
2023-04-22T06:07:56.208Z,12.18
2023-04-22T06:10:24.523Z,11.73
2023-04-22T06:12:53.104Z,11.10
2023-04-22T06:15:21.394Z,11.70
2023-04-22T06:17:50.000Z,10.73
2023-04-22T06:20:19.746Z,12.20
2023-04-22T06:22:48.133Z,10.90
2023-04-22T06:25:16.446Z,10.88
2023-04-22T06:27:44.904Z,9.95
2023-04-22T06:30:13.484Z,11.00
2023-04-22T06:32:41.914Z,10.40
2023-04-22T06:35:10.595Z,10.32
2023-04-22T06:37:40.374Z,10.77
2023-04-22T06:40:10.026Z,9.90
2023-04-22T06:42:38.722Z,10.13
2023-04-22T06:45:08.402Z,9.55
2023-04-22T06:47:36.825Z,11.48
2023-04-22T06:50:05.432Z,9.50
2023-04-22T06:52:33.904Z,8.57
2023-04-22T06:55:03.898Z,9.15
2023-04-22T06:57:32.500Z,9.77
2023-04-22T07:00:00.603Z,9.05
2023-04-22T07:02:29.072Z,8.93
2023-04-22T07:04:57.846Z,9.63
2023-04-22T07:07:26.238Z,9.40
2023-04-22T07:09:54.922Z,10.70
2023-04-22T07:12:25.639Z,11.07
2023-04-22T07:14:53.803Z,10.30
2023-04-22T07:17:22.570Z,8.88
2023-04-22T07:19:50.873Z,9.25
2023-04-22T07:22:19.404Z,8.55
2023-04-22T07:24:47.607Z,8.38
2023-04-22T07:27:16.372Z,8.38
2023-04-22T07:29:45.953Z,7.43
2023-04-22T07:32:14.604Z,7.40
2023-04-22T07:34:42.754Z,8.32
2023-04-22T07:37:11.254Z,7.88
2023-04-22T07:39:39.556Z,8.00
2023-04-22T07:42:08.308Z,8.00
2023-04-22T07:44:38.846Z,8.95
2023-04-22T07:47:09.390Z,8.80
2023-04-22T07:49:37.865Z,8.02
2023-04-22T07:52:06.600Z,9.43
2023-04-22T07:54:34.746Z,10.63
2023-04-22T07:57:03.257Z,10.38
2023-04-22T07:59:31.441Z,8.88
2023-04-22T08:01:59.897Z,8.77
2023-04-22T08:04:29.675Z,7.47
2023-04-22T08:06:58.405Z,6.10
2023-04-22T08:09:26.619Z,7.25
2023-04-22T08:11:55.218Z,7.60
2023-04-22T08:14:23.369Z,9.60
2023-04-22T08:16:52.944Z,7.90
2023-04-22T08:19:21.800Z,6.47
2023-04-22T08:21:51.692Z,7.55
2023-04-22T08:24:19.873Z,7.95
2023-04-22T08:26:48.567Z,7.78
2023-04-22T08:29:16.750Z,6.13
2023-04-22T08:31:45.293Z,5.70
2023-04-22T08:34:13.490Z,5.38
2023-04-22T08:36:41.874Z,5.55
2023-04-22T08:39:11.748Z,5.20
2023-04-22T08:41:40.714Z,6.15
2023-04-22T08:44:09.513Z,4.90
2023-04-22T08:46:38.390Z,5.25
2023-04-22T08:49:06.750Z,5.07
2023-04-22T08:51:35.204Z,5.03
2023-04-22T08:54:03.343Z,5.55
2023-04-22T08:56:33.527Z,4.63
2023-04-22T08:59:02.087Z,4.40
2023-04-22T09:01:32.579Z,4.45
2023-04-22T09:04:01.487Z,5.35
2023-04-22T09:06:32.264Z,4.75
2023-04-22T09:09:01.736Z,4.55
2023-04-22T09:11:30.355Z,4.72
2023-04-22T09:13:59.957Z,5.00
2023-04-22T09:16:28.645Z,4.28
2023-04-22T09:18:57.033Z,4.95
2023-04-22T09:21:27.895Z,5.38
2023-04-22T09:23:57.074Z,5.65
2023-04-22T09:26:26.864Z,5.68
2023-04-22T09:28:56.634Z,4.25
2023-04-22T09:31:26.756Z,5.38
2023-04-22T09:33:57.065Z,5.55
2023-04-22T09:36:27.809Z,4.25
2023-04-22T09:38:57.238Z,4.13
2023-04-22T09:41:29.574Z,3.72
2023-04-22T09:43:58.725Z,4.13
2023-04-22T09:46:29.459Z,4.03
2023-04-22T09:48:59.573Z,4.78
2023-04-22T09:51:28.764Z,4.70
2023-04-22T09:54:01.415Z,4.05
2023-04-22T09:56:43.561Z,4.60
2023-04-22T09:59:12.207Z,4.60
2023-04-22T10:01:43.592Z,4.03
2023-04-22T10:04:14.926Z,4.13
2023-04-22T10:06:44.094Z,4.70
2023-04-22T10:09:12.358Z,4.35
2023-04-22T10:11:41.733Z,3.95
2023-04-22T10:14:13.772Z,4.60
2023-04-22T10:16:45.729Z,4.30
2023-04-22T10:19:17.544Z,3.92
2023-04-22T10:21:47.950Z,4.10
2023-04-22T10:24:17.915Z,3.88
2023-04-22T10:26:50.966Z,4.10
2023-04-22T10:29:20.413Z,4.75
2023-04-22T10:31:57.342Z,4.63
2023-04-22T10:34:26.220Z,5.05
2023-04-22T10:36:59.908Z,4.10
2023-04-22T10:39:29.681Z,4.90
2023-04-22T10:42:06.569Z,3.97
2023-04-22T10:44:48.719Z,4.78
2023-04-22T10:47:28.647Z,4.80
2023-04-22T10:50:13.671Z,2.90
2023-04-22T10:52:43.178Z,3.45
2023-04-22T10:55:11.359Z,4.60
2023-04-22T10:57:41.725Z,4.40
2023-04-22T11:00:24.507Z,3.85
2023-04-22T11:02:56.231Z,4.40
2023-04-22T11:05:27.200Z,3.72
2023-04-22T11:07:57.114Z,3.90
2023-04-22T11:10:43.774Z,2.55
2023-04-22T11:13:14.981Z,6.38
2023-04-22T11:15:44.195Z,2.55
2023-04-22T11:18:15.959Z,3.22
2023-04-22T11:20:44.265Z,3.05
2023-04-22T11:23:12.748Z,3.60
2023-04-22T11:25:41.035Z,3.33
2023-04-22T11:28:09.623Z,3.70
2023-04-22T11:30:37.765Z,3.45
2023-04-22T11:33:06.277Z,4.20
2023-04-22T11:35:37.053Z,3.85
2023-04-22T11:38:08.567Z,4.03
2023-04-22T11:40:39.517Z,3.25
2023-04-22T11:43:10.867Z,3.40
2023-04-22T11:45:40.550Z,3.70
2023-04-22T11:48:11.017Z,3.63
2023-04-22T11:50:42.147Z,4.13
2023-04-22T11:53:15.660Z,3.58
2023-04-22T11:55:45.062Z,4.13
2023-04-22T11:58:16.719Z,3.40
2023-04-22T12:00:46.839Z,3.78
2023-04-22T12:03:16.952Z,3.33
2023-04-22T12:05:48.598Z,3.38
2023-04-22T12:10:47.366Z,3.90
2023-04-22T12:13:27.142Z,3.17
2023-04-22T12:15:56.651Z,3.75
2023-04-22T12:18:31.866Z,3.53
2023-04-22T12:21:09.903Z,3.75
2023-04-22T12:23:43.610Z,3.45
2023-04-22T12:26:12.051Z,3.55
2023-04-22T12:28:41.748Z,3.13
2023-04-22T12:31:10.548Z,3.38
2023-04-22T12:33:39.872Z,3.80
2023-04-22T12:36:09.689Z,3.20
2023-04-22T12:38:38.403Z,3.47
2023-04-22T12:41:07.488Z,3.88
2023-04-22T12:43:36.965Z,3.70
2023-04-22T12:46:05.467Z,3.50
2023-04-22T12:48:34.005Z,3.33
2023-04-22T12:51:02.169Z,3.20
2023-04-22T12:53:31.998Z,3.33
2023-04-22T12:56:00.429Z,3.08
2023-04-22T12:58:28.808Z,3.05
2023-04-22T13:00:57.157Z,44.17
2023-04-22T13:03:25.912Z,5.65
2023-04-22T13:05:54.470Z,5.80
2023-04-22T13:08:23.379Z,6.30
2023-04-22T13:10:53.591Z,4.35
2023-04-22T13:13:22.153Z,4.13
2023-04-22T13:15:53.292Z,4.20
2023-04-22T13:18:23.428Z,4.50
2023-04-22T13:20:52.249Z,3.63
2023-04-22T13:23:21.957Z,4.60
2023-04-22T13:25:50.481Z,4.28
2023-04-22T13:28:20.650Z,3.88
2023-04-22T13:30:48.765Z,3.72
2023-04-22T13:33:17.152Z,5.07
2023-04-22T13:35:46.092Z,9.55
2023-04-22T13:38:14.463Z,3.90
2023-04-22T13:40:42.685Z,16.63
2023-04-22T13:43:11.215Z,5.22
2023-04-22T13:45:42.220Z,3.60
2023-04-22T13:48:10.727Z,3.33
2023-04-22T13:50:42.520Z,3.50
2023-04-22T13:53:11.782Z,4.00
2023-04-22T13:55:40.792Z,4.70
2023-04-22T13:58:09.233Z,5.03
2023-04-22T14:00:37.579Z,3.92
2023-04-22T14:03:07.596Z,3.90
2023-04-22T14:05:35.859Z,3.78
2023-04-22T14:08:04.621Z,4.22
2023-04-22T14:10:32.800Z,4.03
2023-04-22T14:13:01.207Z,3.60
2023-04-22T14:15:29.342Z,3.20
2023-04-22T14:17:57.853Z,4.03
2023-04-22T14:20:27.457Z,3.78
2023-04-22T14:22:56.105Z,3.50
2023-04-22T14:25:24.409Z,3.10
2023-04-22T14:27:52.934Z,3.60
2023-04-22T14:30:21.855Z,3.90
2023-04-22T14:32:50.813Z,3.70
2023-04-22T14:35:19.522Z,4.28
2023-04-22T14:37:49.325Z,3.85
2023-04-22T14:40:17.660Z,4.82
2023-04-22T14:42:46.159Z,3.80
2023-04-22T14:45:14.748Z,3.90
2023-04-22T14:47:43.410Z,3.42
2023-04-22T14:50:12.083Z,4.00
2023-04-22T14:52:40.734Z,4.20
2023-04-22T14:55:21.789Z,10.65
2023-04-22T14:57:52.145Z,4.30
2023-04-22T15:00:20.582Z,4.28
2023-04-22T15:02:49.207Z,4.10
2023-04-22T15:05:17.475Z,5.13
2023-04-22T15:07:45.913Z,5.13
2023-04-22T15:10:16.719Z,6.35
2023-04-22T15:12:45.573Z,4.72
2023-04-22T15:15:15.869Z,3.95
2023-04-22T15:17:44.816Z,4.20
2023-04-22T15:20:13.570Z,4.70
2023-04-22T15:22:42.908Z,4.50
2023-04-22T15:25:11.914Z,4.25
2023-04-22T15:27:41.888Z,3.42
2023-04-22T15:30:11.816Z,4.15
2023-04-22T15:32:40.683Z,4.15
2023-04-22T15:35:09.428Z,4.00
2023-04-22T15:37:38.068Z,4.50
2023-04-22T15:40:07.849Z,4.25
2023-04-22T15:42:36.334Z,4.93
2023-04-22T15:45:07.091Z,4.32
2023-04-22T15:47:36.278Z,4.05
2023-04-22T15:50:08.905Z,4.63
2023-04-22T15:52:38.445Z,4.30
2023-04-22T15:55:07.525Z,4.47
2023-04-22T15:57:36.327Z,4.60
2023-04-22T16:00:11.698Z,6.35
2023-04-22T16:02:43.217Z,6.50
2023-04-22T16:05:12.501Z,5.38
2023-04-22T16:07:41.212Z,5.40
2023-04-22T16:10:10.678Z,4.30
2023-04-22T16:12:39.251Z,4.55
2023-04-22T16:15:10.530Z,5.80
2023-04-22T16:17:39.421Z,11.43
2023-04-22T16:20:09.480Z,8.50
2023-04-22T16:22:38.082Z,8.15
2023-04-22T16:25:07.441Z,21.80
2023-04-22T16:27:35.888Z,7.47
2023-04-22T16:30:04.480Z,5.50
2023-04-22T16:32:34.643Z,6.40
2023-04-22T16:35:03.072Z,5.65
2023-04-22T16:37:32.070Z,5.53
2023-04-22T16:40:00.819Z,4.75
2023-04-22T16:42:29.342Z,4.35
2023-04-22T16:44:57.477Z,15.10
2023-04-22T16:47:26.340Z,35.15
2023-04-22T16:49:55.926Z,52.25
2023-04-22T16:52:24.300Z,67.63
2023-04-22T16:54:52.500Z,21.67
2023-04-22T16:57:21.039Z,17.88
2023-04-22T16:59:49.179Z,40.45
2023-04-22T17:02:17.702Z,99.63
2023-04-22T17:04:46.319Z,28.80
2023-04-22T17:07:16.062Z,23.17
2023-04-22T17:09:44.299Z,9.50
2023-04-22T17:12:12.960Z,12.48
2023-04-22T17:14:41.567Z,11.73
2023-04-22T17:17:09.986Z,19.70
2023-04-22T17:19:38.259Z,13.63
2023-04-22T17:22:06.728Z,15.77
2023-04-22T17:24:36.481Z,11.38
2023-04-22T17:27:05.197Z,15.75
2023-04-22T17:29:33.440Z,14.35
2023-04-22T17:32:01.994Z,18.52
2023-04-22T17:34:30.604Z,13.32
2023-04-22T17:36:58.974Z,10.55
2023-04-22T17:39:27.163Z,10.40
2023-04-22T17:41:58.252Z,6.97
2023-04-22T17:44:26.448Z,6.47
2023-04-22T17:46:54.931Z,5.47
2023-04-22T17:49:23.212Z,5.32
2023-04-22T17:51:51.748Z,5.13
2023-04-22T17:54:20.072Z,6.60
2023-04-22T17:56:48.796Z,6.82
2023-04-22T17:59:18.720Z,6.63
2023-04-22T18:01:47.321Z,6.55
2023-04-22T18:04:15.618Z,6.43
2023-04-22T18:06:44.131Z,5.38
2023-04-22T18:09:12.570Z,5.95
2023-04-22T18:11:41.183Z,4.75
2023-04-22T18:14:09.339Z,4.80
2023-04-22T18:16:39.316Z,5.28
2023-04-22T18:19:07.646Z,4.80
2023-04-22T18:21:39.647Z,5.15
2023-04-22T18:24:09.978Z,5.68
2023-04-22T18:26:38.914Z,5.80
2023-04-22T18:29:08.667Z,5.78
2023-04-22T18:31:38.772Z,6.00
2023-04-22T18:34:08.102Z,7.78
2023-04-22T18:36:36.463Z,8.27
2023-04-22T18:39:05.617Z,7.65
2023-04-22T18:41:34.190Z,7.65
2023-04-22T18:44:02.313Z,7.90
2023-04-22T18:46:31.016Z,7.63
2023-04-22T18:49:00.603Z,6.30
2023-04-22T18:51:30.002Z,6.07
2023-04-22T18:53:58.590Z,6.00
2023-04-22T18:56:27.072Z,5.50
2023-04-22T18:58:55.432Z,5.50
2023-04-22T19:01:24.284Z,6.47
2023-04-22T19:03:52.594Z,5.82
2023-04-22T19:06:22.423Z,7.15
2023-04-22T19:08:53.054Z,7.20
2023-04-22T19:11:21.621Z,8.60
2023-04-22T19:13:49.992Z,9.60
2023-04-22T19:16:19.326Z,10.23
2023-04-22T19:18:48.635Z,13.18
2023-04-22T19:21:19.649Z,13.82
2023-04-22T19:23:52.981Z,14.55
2023-04-22T19:26:21.958Z,13.20
2023-04-22T19:28:50.658Z,12.65
2023-04-22T19:31:19.353Z,13.07
2023-04-22T19:33:48.476Z,11.68
2023-04-22T19:36:17.289Z,10.90
2023-04-22T19:38:45.409Z,10.82
2023-04-22T19:41:15.254Z,13.00
2023-04-22T19:43:43.418Z,12.23
2023-04-22T19:46:11.984Z,11.43
2023-04-22T19:48:40.667Z,11.85
2023-04-22T19:51:10.988Z,11.85
2023-04-22T19:53:41.205Z,11.18
2023-04-22T19:56:09.909Z,11.52
2023-04-22T19:58:39.985Z,12.27
2023-04-22T20:01:09.264Z,12.30
2023-04-22T20:03:38.299Z,12.13
2023-04-22T20:06:07.430Z,12.20
2023-04-22T20:08:36.448Z,12.27
2023-04-22T20:11:05.078Z,12.50
2023-04-22T20:13:34.243Z,13.32
2023-04-22T20:16:04.824Z,13.52
2023-04-22T20:18:33.413Z,12.93
2023-04-22T20:21:01.882Z,14.02
2023-04-22T20:23:30.299Z,14.40
2023-04-22T20:25:59.447Z,13.43
2023-04-22T20:28:42.681Z,14.38
2023-04-22T20:31:12.736Z,15.73
2023-04-22T20:33:41.158Z,15.35
2023-04-22T20:36:09.866Z,15.85
2023-04-22T20:38:38.330Z,16.38
2023-04-22T20:41:07.350Z,16.50
2023-04-22T20:43:35.693Z,15.60
2023-04-22T20:46:04.580Z,17.05
2023-04-22T20:48:34.215Z,16.20
2023-04-22T20:51:02.916Z,16.92
2023-04-22T20:53:31.165Z,17.67
2023-04-22T20:55:59.600Z,18.75
2023-04-22T20:58:28.140Z,17.48
2023-04-22T21:00:57.122Z,17.73
2023-04-22T21:03:26.162Z,17.52
2023-04-22T21:05:56.767Z,17.48
2023-04-22T21:08:26.073Z,19.50
2023-04-22T21:10:56.295Z,20.27
2023-04-22T21:13:24.802Z,20.25
2023-04-22T21:15:57.319Z,21.38
2023-04-22T21:20:57.363Z,20.02
2023-04-22T21:23:27.004Z,19.97
2023-04-22T21:25:56.491Z,21.23
2023-04-22T21:28:25.307Z,20.45
2023-04-22T21:30:54.281Z,20.88
2023-04-22T21:33:22.400Z,21.02
2023-04-22T21:35:50.762Z,21.92
2023-04-22T21:38:20.717Z,21.30
2023-04-22T21:40:49.169Z,21.85
2023-04-22T21:43:17.348Z,22.27
2023-04-22T21:45:46.297Z,22.10
2023-04-22T21:48:14.454Z,23.35
2023-04-22T21:50:42.880Z,22.77
2023-04-22T21:53:11.849Z,23.50
2023-04-22T21:55:41.795Z,23.65
2023-04-22T21:58:09.981Z,23.58
2023-04-22T22:00:38.819Z,23.20
2023-04-22T22:03:07.191Z,23.35
2023-04-22T22:05:36.021Z,22.75
2023-04-22T22:08:04.323Z,24.25
2023-04-22T22:10:32.785Z,24.38
2023-04-22T22:13:02.283Z,24.42
2023-04-22T22:15:30.759Z,23.42
2023-04-22T22:17:59.418Z,24.02
2023-04-22T22:20:29.660Z,24.63
2023-04-22T22:22:57.941Z,23.40
2023-04-22T22:25:26.464Z,22.15
2023-04-22T22:27:54.579Z,22.10
2023-04-22T22:30:24.490Z,22.40
2023-04-22T22:32:52.683Z,22.55
2023-04-22T22:35:21.201Z,21.75
2023-04-22T22:37:49.354Z,19.67
2023-04-22T22:40:17.818Z,20.85
2023-04-22T22:42:46.042Z,21.83
2023-04-22T22:45:14.892Z,19.60
2023-04-22T22:47:44.579Z,20.45
2023-04-22T22:50:13.003Z,19.80
2023-04-22T22:52:41.255Z,19.13
2023-04-22T22:55:10.328Z,20.80
2023-04-22T22:57:38.448Z,19.98
2023-04-22T23:00:10.259Z,20.67
2023-04-22T23:02:38.716Z,20.08
2023-04-22T23:05:10.864Z,19.85
2023-04-22T23:07:39.390Z,20.05
2023-04-22T23:10:09.161Z,18.88
2023-04-22T23:12:37.401Z,20.70
2023-04-22T23:15:07.765Z,19.83
2023-04-22T23:17:36.493Z,19.77
2023-04-22T23:20:06.822Z,20.63
2023-04-22T23:22:38.777Z,19.15
2023-04-22T23:25:08.631Z,19.23
2023-04-22T23:27:37.329Z,20.15
2023-04-22T23:30:07.226Z,19.73
2023-04-22T23:32:36.958Z,20.70
2023-04-22T23:35:07.740Z,21.60
2023-04-22T23:37:39.258Z,19.63
2023-04-22T23:40:09.724Z,19.30
2023-04-22T23:42:38.034Z,20.42
2023-04-22T23:45:07.392Z,17.05
2023-04-22T23:47:35.575Z,19.38
2023-04-22T23:50:04.854Z,17.63
2023-04-22T23:52:32.990Z,18.40
2023-04-22T23:55:02.904Z,16.75
2023-04-22T23:57:31.604Z,17.45
